sensor_id;sensor_type;location;lat;lon;timestamp;temperature;humidity
65752;DHT22;52486;51.098;13.770;2023-04-03T00:01:08;23.90;57.10
65752;DHT22;52486;51.098;13.770;2023-04-03T00:03:34;24.20;50.60
65752;DHT22;52486;51.098;13.770;2023-04-03T00:06:00;24.40;51.00
65752;DHT22;52486;51.098;13.770;2023-04-03T00:08:25;24.80;57.90
65752;DHT22;52486;51.098;13.770;2023-04-03T00:10:51;23.70;57.20
65752;DHT22;52486;51.098;13.770;2023-04-03T00:13:17;25.20;51.40
65752;DHT22;52486;51.098;13.770;2023-04-03T00:15:44;24.80;50.90
65752;DHT22;52486;51.098;13.770;2023-04-03T00:18:10;24.40;57.60
65752;DHT22;52486;51.098;13.770;2023-04-03T00:20:35;24.20;57.40
65752;DHT22;52486;51.098;13.770;2023-04-03T00:23:02;24.80;50.70
65752;DHT22;52486;51.098;13.770;2023-04-03T00:25:28;24.50;50.90
65752;DHT22;52486;51.098;13.770;2023-04-03T00:27:53;24.50;50.70
65752;DHT22;52486;51.098;13.770;2023-04-03T00:30:21;24.60;50.70
65752;DHT22;52486;51.098;13.770;2023-04-03T00:32:51;24.40;57.40
65752;DHT22;52486;51.098;13.770;2023-04-03T00:35:18;24.50;50.80
65752;DHT22;52486;51.098;13.770;2023-04-03T00:37:44;24.50;50.50
65752;DHT22;52486;51.098;13.770;2023-04-03T00:40:11;24.70;50.60
65752;DHT22;52486;51.098;13.770;2023-04-03T00:42:39;24.50;50.20
65752;DHT22;52486;51.098;13.770;2023-04-03T00:47:31;25.30;58.40
65752;DHT22;52486;51.098;13.770;2023-04-03T00:49:58;24.40;57.00
65752;DHT22;52486;51.098;13.770;2023-04-03T00:52:27;24.80;50.50
65752;DHT22;52486;51.098;13.770;2023-04-03T00:54:57;25.00;50.80
65752;DHT22;52486;51.098;13.770;2023-04-03T00:57:24;24.40;57.10
65752;DHT22;52486;51.098;13.770;2023-04-03T00:59:54;25.00;51.60
65752;DHT22;52486;51.098;13.770;2023-04-03T01:02:21;25.90;58.40
65752;DHT22;52486;51.098;13.770;2023-04-03T01:04:47;24.40;50.30
65752;DHT22;52486;51.098;13.770;2023-04-03T01:09:39;24.70;50.80
65752;DHT22;52486;51.098;13.770;2023-04-03T01:12:23;24.50;50.60
65752;DHT22;52486;51.098;13.770;2023-04-03T01:14:51;24.70;51.30
65752;DHT22;52486;51.098;13.770;2023-04-03T01:17:36;23.70;56.90
65752;DHT22;52486;51.098;13.770;2023-04-03T01:25:25;24.70;51.00
65752;DHT22;52486;51.098;13.770;2023-04-03T01:27:51;23.70;56.90
65752;DHT22;52486;51.098;13.770;2023-04-03T01:30:19;24.80;50.80
65752;DHT22;52486;51.098;13.770;2023-04-03T01:32:45;24.70;50.60
65752;DHT22;52486;51.098;13.770;2023-04-03T01:35:15;25.00;50.70
65752;DHT22;52486;51.098;13.770;2023-04-03T01:37:40;23.30;57.00
65752;DHT22;52486;51.098;13.770;2023-04-03T01:40:07;25.00;58.20
65752;DHT22;52486;51.098;13.770;2023-04-03T01:42:33;25.00;58.40
65752;DHT22;52486;51.098;13.770;2023-04-03T01:44:59;24.60;50.50
65752;DHT22;52486;51.098;13.770;2023-04-03T01:47:25;24.50;50.50
65752;DHT22;52486;51.098;13.770;2023-04-03T01:49:50;25.50;58.40
65752;DHT22;52486;51.098;13.770;2023-04-03T01:52:16;25.00;50.70
65752;DHT22;52486;51.098;13.770;2023-04-03T01:54:42;24.80;50.60
65752;DHT22;52486;51.098;13.770;2023-04-03T01:57:07;25.10;57.30
65752;DHT22;52486;51.098;13.770;2023-04-03T01:59:33;24.60;50.60
65752;DHT22;52486;51.098;13.770;2023-04-03T02:01:58;24.60;50.30
65752;DHT22;52486;51.098;13.770;2023-04-03T02:04:24;26.00;58.40
65752;DHT22;52486;51.098;13.770;2023-04-03T02:06:50;24.70;50.60
65752;DHT22;52486;51.098;13.770;2023-04-03T02:09:16;25.80;51.30
65752;DHT22;52486;51.098;13.770;2023-04-03T02:11:41;24.40;57.20
65752;DHT22;52486;51.098;13.770;2023-04-03T02:14:07;24.90;58.10
65752;DHT22;52486;51.098;13.770;2023-04-03T02:16:33;24.70;57.50
65752;DHT22;52486;51.098;13.770;2023-04-03T02:18:58;24.40;57.10
65752;DHT22;52486;51.098;13.770;2023-04-03T02:21:24;25.60;51.30
65752;DHT22;52486;51.098;13.770;2023-04-03T02:23:50;24.50;50.50
65752;DHT22;52486;51.098;13.770;2023-04-03T02:26:16;24.50;57.10
65752;DHT22;52486;51.098;13.770;2023-04-03T02:28:42;24.50;50.70
65752;DHT22;52486;51.098;13.770;2023-04-03T02:31:09;23.80;57.20
65752;DHT22;52486;51.098;13.770;2023-04-03T02:33:35;25.20;51.20
65752;DHT22;52486;51.098;13.770;2023-04-03T02:36:06;25.50;57.90
65752;DHT22;52486;51.098;13.770;2023-04-03T02:38:32;24.30;57.00
65752;DHT22;52486;51.098;13.770;2023-04-03T02:41:09;24.80;50.40
65752;DHT22;52486;51.098;13.770;2023-04-03T02:43:36;24.80;51.00
65752;DHT22;52486;51.098;13.770;2023-04-03T02:46:02;24.80;50.40
65752;DHT22;52486;51.098;13.770;2023-04-03T02:48:28;24.80;50.70
65752;DHT22;52486;51.098;13.770;2023-04-03T02:50:54;25.20;57.30
65752;DHT22;52486;51.098;13.770;2023-04-03T02:53:20;25.10;57.10
65752;DHT22;52486;51.098;13.770;2023-04-03T02:55:45;23.80;56.80
65752;DHT22;52486;51.098;13.770;2023-04-03T02:58:11;24.50;50.30
65752;DHT22;52486;51.098;13.770;2023-04-03T03:00:37;24.20;56.80
65752;DHT22;52486;51.098;13.770;2023-04-03T03:03:03;24.30;57.00
65752;DHT22;52486;51.098;13.770;2023-04-03T03:05:30;24.60;50.40
65752;DHT22;52486;51.098;13.770;2023-04-03T03:10:22;24.40;47.70
65752;DHT22;52486;51.098;13.770;2023-04-03T03:12:47;24.70;50.70
65752;DHT22;52486;51.098;13.770;2023-04-03T03:15:13;25.90;58.40
65752;DHT22;52486;51.098;13.770;2023-04-03T03:17:40;24.30;50.30
65752;DHT22;52486;51.098;13.770;2023-04-03T03:20:07;24.40;49.30
65752;DHT22;52486;51.098;13.770;2023-04-03T03:22:34;24.40;49.50
65752;DHT22;52486;51.098;13.770;2023-04-03T03:25:00;23.80;56.60
65752;DHT22;52486;51.098;13.770;2023-04-03T03:27:26;23.70;56.60
65752;DHT22;52486;51.098;13.770;2023-04-03T03:29:52;24.50;50.40
65752;DHT22;52486;51.098;13.770;2023-04-03T03:32:18;23.80;56.90
65752;DHT22;52486;51.098;13.770;2023-04-03T03:34:43;24.80;50.70
65752;DHT22;52486;51.098;13.770;2023-04-03T03:37:09;24.30;56.70
65752;DHT22;52486;51.098;13.770;2023-04-03T03:39:35;25.40;57.80
65752;DHT22;52486;51.098;13.770;2023-04-03T03:42:01;24.50;57.30
65752;DHT22;52486;51.098;13.770;2023-04-03T03:44:26;24.60;57.10
65752;DHT22;52486;51.098;13.770;2023-04-03T03:46:54;24.70;50.40
65752;DHT22;52486;51.098;13.770;2023-04-03T03:49:20;25.40;57.60
65752;DHT22;52486;51.098;13.770;2023-04-03T03:51:46;24.80;56.90
65752;DHT22;52486;51.098;13.770;2023-04-03T03:54:12;25.10;50.50
65752;DHT22;52486;51.098;13.770;2023-04-03T03:56:38;24.70;50.40
65752;DHT22;52486;51.098;13.770;2023-04-03T03:59:05;24.30;56.90
65752;DHT22;52486;51.098;13.770;2023-04-03T04:01:32;25.00;57.30
65752;DHT22;52486;51.098;13.770;2023-04-03T04:03:58;24.70;57.10
65752;DHT22;52486;51.098;13.770;2023-04-03T04:06:23;24.60;50.60
65752;DHT22;52486;51.098;13.770;2023-04-03T04:08:49;24.60;50.30
65752;DHT22;52486;51.098;13.770;2023-04-03T04:11:15;24.40;57.10
65752;DHT22;52486;51.098;13.770;2023-04-03T04:13:41;24.50;50.50
65752;DHT22;52486;51.098;13.770;2023-04-03T04:16:07;23.30;56.80
65752;DHT22;52486;51.098;13.770;2023-04-03T04:18:33;23.50;56.70
65752;DHT22;52486;51.098;13.770;2023-04-03T04:20:59;24.60;50.50
65752;DHT22;52486;51.098;13.770;2023-04-03T04:23:25;24.30;50.20
65752;DHT22;52486;51.098;13.770;2023-04-03T04:25:51;23.60;56.80
65752;DHT22;52486;51.098;13.770;2023-04-03T04:28:17;24.20;57.90
65752;DHT22;52486;51.098;13.770;2023-04-03T04:30:43;23.90;56.70
65752;DHT22;52486;51.098;13.770;2023-04-03T04:33:10;23.70;56.50
65752;DHT22;52486;51.098;13.770;2023-04-03T04:35:35;23.70;56.70
65752;DHT22;52486;51.098;13.770;2023-04-03T04:38:01;23.70;56.60
65752;DHT22;52486;51.098;13.770;2023-04-03T04:40:27;23.90;56.60
65752;DHT22;52486;51.098;13.770;2023-04-03T04:42:52;24.70;50.50
65752;DHT22;52486;51.098;13.770;2023-04-03T04:45:18;24.20;57.20
65752;DHT22;52486;51.098;13.770;2023-04-03T04:47:44;24.20;56.80
65752;DHT22;52486;51.098;13.770;2023-04-03T04:50:10;24.70;50.50
65752;DHT22;52486;51.098;13.770;2023-04-03T04:52:37;24.50;50.20
65752;DHT22;52486;51.098;13.770;2023-04-03T04:55:03;23.20;56.70
65752;DHT22;52486;51.098;13.770;2023-04-03T04:57:28;24.50;58.00
65752;DHT22;52486;51.098;13.770;2023-04-03T04:59:54;24.30;57.30
65752;DHT22;52486;51.098;13.770;2023-04-03T05:02:20;24.40;57.10
65752;DHT22;52486;51.098;13.770;2023-04-03T05:04:46;24.30;50.30
65752;DHT22;52486;51.098;13.770;2023-04-03T05:07:11;25.00;57.10
65752;DHT22;52486;51.098;13.770;2023-04-03T05:09:37;25.20;54.80
65752;DHT22;52486;51.098;13.770;2023-04-03T05:12:03;24.40;47.30
65752;DHT22;52486;51.098;13.770;2023-04-03T05:14:29;23.20;55.40
65752;DHT22;52486;51.098;13.770;2023-04-03T05:16:55;23.80;54.80
65752;DHT22;52486;51.098;13.770;2023-04-03T05:19:21;24.10;49.90
65752;DHT22;52486;51.098;13.770;2023-04-03T05:21:47;24.10;47.60
65752;DHT22;52486;51.098;13.770;2023-04-03T05:24:14;23.80;48.30
65752;DHT22;52486;51.098;13.770;2023-04-03T05:26:40;23.50;49.00
65752;DHT22;52486;51.098;13.770;2023-04-03T05:29:06;23.60;55.80
65752;DHT22;52486;51.098;13.770;2023-04-03T05:31:32;23.60;55.90
65752;DHT22;52486;51.098;13.770;2023-04-03T05:33:57;23.60;56.10
65752;DHT22;52486;51.098;13.770;2023-04-03T05:36:23;24.80;57.10
65752;DHT22;52486;51.098;13.770;2023-04-03T05:38:49;23.80;56.50
65752;DHT22;52486;51.098;13.770;2023-04-03T05:41:15;23.40;56.40
65752;DHT22;52486;51.098;13.770;2023-04-03T05:43:41;23.80;50.20
65752;DHT22;52486;51.098;13.770;2023-04-03T05:46:14;22.30;52.70
65752;DHT22;52486;51.098;13.770;2023-04-03T05:48:41;23.40;46.20
65752;DHT22;52486;51.098;13.770;2023-04-03T05:51:09;22.80;53.50
65752;DHT22;52486;51.098;13.770;2023-04-03T05:53:38;23.10;53.30
65752;DHT22;52486;51.098;13.770;2023-04-03T05:56:05;23.50;52.80
65752;DHT22;52486;51.098;13.770;2023-04-03T05:58:30;23.00;52.90
65752;DHT22;52486;51.098;13.770;2023-04-03T06:00:56;21.80;52.60
65752;DHT22;52486;51.098;13.770;2023-04-03T06:03:22;21.80;52.20
65752;DHT22;52486;51.098;13.770;2023-04-03T06:05:48;21.60;53.80
65752;DHT22;52486;51.098;13.770;2023-04-03T06:08:14;21.30;55.40
65752;DHT22;52486;51.098;13.770;2023-04-03T06:10:40;22.40;56.50
65752;DHT22;52486;51.098;13.770;2023-04-03T06:15:32;22.20;53.40
65752;DHT22;52486;51.098;13.770;2023-04-03T06:17:59;21.10;53.10
65752;DHT22;52486;51.098;13.770;2023-04-03T06:20:25;22.70;54.60
65752;DHT22;52486;51.098;13.770;2023-04-03T06:22:51;21.50;56.20
65752;DHT22;52486;51.098;13.770;2023-04-03T06:25:17;21.30;57.40
65752;DHT22;52486;51.098;13.770;2023-04-03T06:27:44;22.10;58.30
65752;DHT22;52486;51.098;13.770;2023-04-03T06:30:10;21.50;58.10
65752;DHT22;52486;51.098;13.770;2023-04-03T06:32:37;22.00;50.20
65752;DHT22;52486;51.098;13.770;2023-04-03T06:35:04;22.10;59.30
65752;DHT22;52486;51.098;13.770;2023-04-03T06:37:30;22.90;59.90
65752;DHT22;52486;51.098;13.770;2023-04-03T06:39:56;21.40;58.60
65752;DHT22;52486;51.098;13.770;2023-04-03T06:42:22;22.10;51.70
65752;DHT22;52486;51.098;13.770;2023-04-03T06:47:16;22.00;58.60
65752;DHT22;52486;51.098;13.770;2023-04-03T06:49:42;22.40;59.00
65752;DHT22;52486;51.098;13.770;2023-04-03T06:52:09;22.70;58.80
65752;DHT22;52486;51.098;13.770;2023-04-03T06:57:01;21.90;56.00
65752;DHT22;52486;51.098;13.770;2023-04-03T06:59:27;21.60;57.80
65752;DHT22;52486;51.098;13.770;2023-04-03T07:01:53;22.10;58.20
65752;DHT22;52486;51.098;13.770;2023-04-03T07:04:19;21.60;58.20
65752;DHT22;52486;51.098;13.770;2023-04-03T07:06:46;21.80;58.20
65752;DHT22;52486;51.098;13.770;2023-04-03T07:09:13;22.10;58.20
65752;DHT22;52486;51.098;13.770;2023-04-03T07:11:39;21.80;58.10
65752;DHT22;52486;51.098;13.770;2023-04-03T07:16:33;21.70;57.90
65752;DHT22;52486;51.098;13.770;2023-04-03T07:18:59;21.60;57.50
65752;DHT22;52486;51.098;13.770;2023-04-03T07:21:24;21.70;57.90
65752;DHT22;52486;51.098;13.770;2023-04-03T07:23:51;22.20;57.90
65752;DHT22;52486;51.098;13.770;2023-04-03T07:26:16;23.70;59.00
65752;DHT22;52486;51.098;13.770;2023-04-03T07:31:12;22.80;48.90
65752;DHT22;52486;51.098;13.770;2023-04-03T07:33:42;22.60;58.20
65752;DHT22;52486;51.098;13.770;2023-04-03T07:36:10;22.80;58.10
65752;DHT22;52486;51.098;13.770;2023-04-03T07:38:36;23.70;59.00
65752;DHT22;52486;51.098;13.770;2023-04-03T07:41:03;22.20;58.20
65752;DHT22;52486;51.098;13.770;2023-04-03T07:43:29;21.90;58.40
65752;DHT22;52486;51.098;13.770;2023-04-03T07:45:55;22.60;58.50
65752;DHT22;52486;51.098;13.770;2023-04-03T07:48:22;22.40;58.30
65752;DHT22;52486;51.098;13.770;2023-04-03T07:50:48;22.80;58.60
65752;DHT22;52486;51.098;13.770;2023-04-03T07:53:14;22.80;58.60
65752;DHT22;52486;51.098;13.770;2023-04-03T07:55:40;23.70;50.90
65752;DHT22;52486;51.098;13.770;2023-04-03T07:58:10;23.00;58.80
65752;DHT22;52486;51.098;13.770;2023-04-03T08:00:36;22.50;58.60
65752;DHT22;52486;51.098;13.770;2023-04-03T08:03:03;23.20;58.80
65752;DHT22;52486;51.098;13.770;2023-04-03T08:05:28;24.20;59.70
65752;DHT22;52486;51.098;13.770;2023-04-03T08:10:20;22.80;58.50
65752;DHT22;52486;51.098;13.770;2023-04-03T08:12:47;22.60;58.50
65752;DHT22;52486;51.098;13.770;2023-04-03T08:15:12;22.80;58.30
65752;DHT22;52486;51.098;13.770;2023-04-03T08:17:38;23.10;59.00
65752;DHT22;52486;51.098;13.770;2023-04-03T08:20:05;23.50;51.30
65752;DHT22;52486;51.098;13.770;2023-04-03T08:22:32;23.60;58.80
65752;DHT22;52486;51.098;13.770;2023-04-03T08:24:59;22.70;58.30
65752;DHT22;52486;51.098;13.770;2023-04-03T08:27:26;23.40;58.50
65752;DHT22;52486;51.098;13.770;2023-04-03T08:34:44;23.20;58.60
65752;DHT22;52486;51.098;13.770;2023-04-03T08:39:36;23.60;58.30
65752;DHT22;52486;51.098;13.770;2023-04-03T08:42:07;23.20;51.30
65752;DHT22;52486;51.098;13.770;2023-04-03T08:44:43;23.90;52.60
65752;DHT22;52486;51.098;13.770;2023-04-03T08:47:17;23.60;59.10
65752;DHT22;52486;51.098;13.770;2023-04-03T08:50:13;23.80;49.50
65752;DHT22;52486;51.098;13.770;2023-04-03T08:52:56;23.20;58.90
65752;DHT22;52486;51.098;13.770;2023-04-03T08:55:44;23.40;58.80
65752;DHT22;52486;51.098;13.770;2023-04-03T08:58:50;23.10;58.40
65752;DHT22;52486;51.098;13.770;2023-04-03T09:01:34;23.00;58.40
65752;DHT22;52486;51.098;13.770;2023-04-03T09:04:13;24.30;49.50
65752;DHT22;52486;51.098;13.770;2023-04-03T09:06:42;23.70;58.40
65752;DHT22;52486;51.098;13.770;2023-04-03T09:09:32;23.30;58.40
65752;DHT22;52486;51.098;13.770;2023-04-03T09:15:11;23.60;58.70
65752;DHT22;52486;51.098;13.770;2023-04-03T09:21:12;23.90;58.60
65752;DHT22;52486;51.098;13.770;2023-04-03T09:23:50;24.50;59.70
65752;DHT22;52486;51.098;13.770;2023-04-03T09:26:29;23.50;58.50
65752;DHT22;52486;51.098;13.770;2023-04-03T09:28:59;23.50;58.40
65752;DHT22;52486;51.098;13.770;2023-04-03T09:31:30;25.50;53.10
65752;DHT22;52486;51.098;13.770;2023-04-03T09:34:06;24.60;52.60
65752;DHT22;52486;51.098;13.770;2023-04-03T09:39:23;25.10;59.30
65752;DHT22;52486;51.098;13.770;2023-04-03T09:46:54;24.20;58.70
65752;DHT22;52486;51.098;13.770;2023-04-03T09:49:20;25.30;58.70
65752;DHT22;52486;51.098;13.770;2023-04-03T09:51:46;26.10;59.10
65752;DHT22;52486;51.098;13.770;2023-04-03T09:54:44;24.90;51.30
65752;DHT22;52486;51.098;13.770;2023-04-03T09:57:12;24.70;50.40
65752;DHT22;52486;51.098;13.770;2023-04-03T09:59:57;25.70;58.60
65752;DHT22;52486;51.098;13.770;2023-04-03T10:02:39;24.20;57.80
65752;DHT22;52486;51.098;13.770;2023-04-03T10:08:19;24.90;49.90
65752;DHT22;52486;51.098;13.770;2023-04-03T10:10:47;25.20;52.10
65752;DHT22;52486;51.098;13.770;2023-04-03T10:13:18;25.00;51.20
65752;DHT22;52486;51.098;13.770;2023-04-03T10:15:51;24.30;57.10
65752;DHT22;52486;51.098;13.770;2023-04-03T10:18:31;24.40;57.10
65752;DHT22;52486;51.098;13.770;2023-04-03T10:21:04;24.30;56.90
65752;DHT22;52486;51.098;13.770;2023-04-03T10:23:51;24.60;56.90
65752;DHT22;52486;51.098;13.770;2023-04-03T10:32:33;25.00;57.70
65752;DHT22;52486;51.098;13.770;2023-04-03T10:35:15;25.30;48.60
65752;DHT22;52486;51.098;13.770;2023-04-03T10:37:56;25.30;56.70
65752;DHT22;52486;51.098;13.770;2023-04-03T10:43:36;26.70;57.50
65752;DHT22;52486;51.098;13.770;2023-04-03T10:46:35;25.40;47.70
65752;DHT22;52486;51.098;13.770;2023-04-03T10:52:20;24.10;56.20
65752;DHT22;52486;51.098;13.770;2023-04-03T10:57:40;25.70;47.50
65752;DHT22;52486;51.098;13.770;2023-04-03T11:00:16;25.60;56.80
65752;DHT22;52486;51.098;13.770;2023-04-03T11:02:57;25.90;49.50
65752;DHT22;52486;51.098;13.770;2023-04-03T11:08:05;25.80;49.50
65752;DHT22;52486;51.098;13.770;2023-04-03T11:10:42;25.50;56.20
65752;DHT22;52486;51.098;13.770;2023-04-03T11:13:16;26.00;47.80
65752;DHT22;52486;51.098;13.770;2023-04-03T11:15:43;25.80;47.60
65752;DHT22;52486;51.098;13.770;2023-04-03T11:18:27;26.10;49.00
65752;DHT22;52486;51.098;13.770;2023-04-03T11:23:36;25.90;49.70
65752;DHT22;52486;51.098;13.770;2023-04-03T11:26:13;26.10;49.30
65752;DHT22;52486;51.098;13.770;2023-04-03T11:28:40;26.00;47.20
65752;DHT22;52486;51.098;13.770;2023-04-03T11:31:31;26.00;49.00
65752;DHT22;52486;51.098;13.770;2023-04-03T11:34:21;25.90;50.00
65752;DHT22;52486;51.098;13.770;2023-04-03T11:36:51;25.80;49.10
65752;DHT22;52486;51.098;13.770;2023-04-03T11:39:31;26.30;49.10
65752;DHT22;52486;51.098;13.770;2023-04-03T11:44:51;26.00;46.80
65752;DHT22;52486;51.098;13.770;2023-04-03T11:47:44;27.00;56.10
65752;DHT22;52486;51.098;13.770;2023-04-03T12:16:22;26.60;54.40
65752;DHT22;52486;51.098;13.770;2023-04-03T12:21:15;25.80;54.00
65752;DHT22;52486;51.098;13.770;2023-04-03T12:26:25;25.90;47.10
65752;DHT22;52486;51.098;13.770;2023-04-03T12:28:53;26.00;46.80
65752;DHT22;52486;51.098;13.770;2023-04-03T12:31:22;24.80;52.90
65752;DHT22;52486;51.098;13.770;2023-04-03T12:34:09;26.40;53.60
65752;DHT22;52486;51.098;13.770;2023-04-03T12:36:54;25.90;45.20
65752;DHT22;52486;51.098;13.770;2023-04-03T12:42:55;26.50;55.10
65752;DHT22;52486;51.098;13.770;2023-04-03T12:45:24;25.10;53.40
65752;DHT22;52486;51.098;13.770;2023-04-03T12:47:52;26.10;47.30
65752;DHT22;52486;51.098;13.770;2023-04-03T12:50:28;26.10;47.30
65752;DHT22;52486;51.098;13.770;2023-04-03T12:53:02;25.70;44.90
65752;DHT22;52486;51.098;13.770;2023-04-03T12:55:29;25.90;45.10
65752;DHT22;52486;51.098;13.770;2023-04-03T12:57:55;25.90;47.00
65752;DHT22;52486;51.098;13.770;2023-04-03T13:02:47;26.00;45.90
65752;DHT22;52486;51.098;13.770;2023-04-03T13:05:17;25.60;53.00
65752;DHT22;52486;51.098;13.770;2023-04-03T13:07:44;25.70;46.30
65752;DHT22;52486;51.098;13.770;2023-04-03T13:10:18;25.70;46.40
65752;DHT22;52486;51.098;13.770;2023-04-03T13:12:48;25.60;45.70
65752;DHT22;52486;51.098;13.770;2023-04-03T13:15:18;25.80;46.40
65752;DHT22;52486;51.098;13.770;2023-04-03T13:17:45;25.70;46.20
65752;DHT22;52486;51.098;13.770;2023-04-03T13:20:32;25.70;45.60
65752;DHT22;52486;51.098;13.770;2023-04-03T13:25:32;25.80;45.70
65752;DHT22;52486;51.098;13.770;2023-04-03T13:28:00;26.30;45.90
65752;DHT22;52486;51.098;13.770;2023-04-03T13:30:30;25.50;52.10
65752;DHT22;52486;51.098;13.770;2023-04-03T13:32:58;25.90;45.70
65752;DHT22;52486;51.098;13.770;2023-04-03T13:35:39;25.70;45.50
65752;DHT22;52486;51.098;13.770;2023-04-03T13:40:52;25.70;52.50
65752;DHT22;52486;51.098;13.770;2023-04-03T13:43:22;25.70;45.70
65752;DHT22;52486;51.098;13.770;2023-04-03T13:48:46;25.60;43.70
65752;DHT22;52486;51.098;13.770;2023-04-03T13:53:51;24.80;51.80
65752;DHT22;52486;51.098;13.770;2023-04-03T13:56:30;26.00;46.00
65752;DHT22;52486;51.098;13.770;2023-04-03T14:01:46;25.90;43.50
65752;DHT22;52486;51.098;13.770;2023-04-03T14:04:27;26.20;45.80
65752;DHT22;52486;51.098;13.770;2023-04-03T14:06:54;26.10;43.70
65752;DHT22;52486;51.098;13.770;2023-04-03T14:09:21;26.20;45.40
65752;DHT22;52486;51.098;13.770;2023-04-03T14:11:50;26.00;45.10
65752;DHT22;52486;51.098;13.770;2023-04-03T14:14:30;26.90;45.70
65752;DHT22;52486;51.098;13.770;2023-04-03T14:16:58;25.90;45.20
65752;DHT22;52486;51.098;13.770;2023-04-03T14:19:31;26.00;45.00
65752;DHT22;52486;51.098;13.770;2023-04-03T14:21:58;26.00;45.10
65752;DHT22;52486;51.098;13.770;2023-04-03T14:24:24;26.10;45.00
65752;DHT22;52486;51.098;13.770;2023-04-03T14:26:52;25.70;45.00
65752;DHT22;52486;51.098;13.770;2023-04-03T14:29:19;25.70;44.70
65752;DHT22;52486;51.098;13.770;2023-04-03T14:31:47;25.90;44.90
65752;DHT22;52486;51.098;13.770;2023-04-03T14:34:15;26.60;45.30
65752;DHT22;52486;51.098;13.770;2023-04-03T14:36:42;26.00;44.90
65752;DHT22;52486;51.098;13.770;2023-04-03T14:39:15;26.00;44.80
65752;DHT22;52486;51.098;13.770;2023-04-03T14:41:42;25.10;51.10
65752;DHT22;52486;51.098;13.770;2023-04-03T14:44:08;26.00;44.50
65752;DHT22;52486;51.098;13.770;2023-04-03T14:46:39;26.40;44.90
65752;DHT22;52486;51.098;13.770;2023-04-03T14:49:15;26.00;44.90
65752;DHT22;52486;51.098;13.770;2023-04-03T14:51:41;25.70;44.80
65752;DHT22;52486;51.098;13.770;2023-04-03T14:54:19;26.20;45.00
65752;DHT22;52486;51.098;13.770;2023-04-03T14:56:46;26.00;45.10
65752;DHT22;52486;51.098;13.770;2023-04-03T14:59:13;26.00;44.60
65752;DHT22;52486;51.098;13.770;2023-04-03T15:01:39;26.60;52.00
65752;DHT22;52486;51.098;13.770;2023-04-03T15:04:19;26.10;44.90
65752;DHT22;52486;51.098;13.770;2023-04-03T15:06:46;26.20;45.30
65752;DHT22;52486;51.098;13.770;2023-04-03T15:09:24;25.90;44.70
65752;DHT22;52486;51.098;13.770;2023-04-03T15:11:52;26.00;45.90
65752;DHT22;52486;51.098;13.770;2023-04-03T15:14:18;26.60;45.10
65752;DHT22;52486;51.098;13.770;2023-04-03T15:16:44;25.40;52.00
65752;DHT22;52486;51.098;13.770;2023-04-03T15:19:11;26.90;45.50
65752;DHT22;52486;51.098;13.770;2023-04-03T15:21:37;25.40;51.80
65752;DHT22;52486;51.098;13.770;2023-04-03T15:24:04;25.90;44.70
65752;DHT22;52486;51.098;13.770;2023-04-03T15:26:31;25.90;44.80
65752;DHT22;52486;51.098;13.770;2023-04-03T15:28:56;26.40;45.00
65752;DHT22;52486;51.098;13.770;2023-04-03T15:31:22;26.20;45.10
65752;DHT22;52486;51.098;13.770;2023-04-03T15:33:48;25.90;51.30
65752;DHT22;52486;51.098;13.770;2023-04-03T15:36:14;26.50;52.00
65752;DHT22;52486;51.098;13.770;2023-04-03T15:38:39;26.80;45.70
65752;DHT22;52486;51.098;13.770;2023-04-03T15:41:05;27.00;45.90
65752;DHT22;52486;51.098;13.770;2023-04-03T15:43:31;25.50;51.50
65752;DHT22;52486;51.098;13.770;2023-04-03T15:45:59;26.00;44.90
65752;DHT22;52486;51.098;13.770;2023-04-03T15:48:27;27.00;45.50
65752;DHT22;52486;51.098;13.770;2023-04-03T15:50:54;26.30;52.40
65752;DHT22;52486;51.098;13.770;2023-04-03T15:53:20;27.10;52.50
65752;DHT22;52486;51.098;13.770;2023-04-03T15:55:45;25.90;44.60
65752;DHT22;52486;51.098;13.770;2023-04-03T15:58:11;25.80;44.70
65752;DHT22;52486;51.098;13.770;2023-04-03T16:00:37;26.10;45.00
65752;DHT22;52486;51.098;13.770;2023-04-03T16:03:10;25.80;44.40
65752;DHT22;52486;51.098;13.770;2023-04-03T16:05:37;25.90;45.10
65752;DHT22;52486;51.098;13.770;2023-04-03T16:08:05;24.80;50.90
65752;DHT22;52486;51.098;13.770;2023-04-03T16:10:33;25.90;44.60
65752;DHT22;52486;51.098;13.770;2023-04-03T16:12:59;25.80;44.40
65752;DHT22;52486;51.098;13.770;2023-04-03T16:15:25;26.10;44.70
65752;DHT22;52486;51.098;13.770;2023-04-03T16:17:52;25.80;44.30
65752;DHT22;52486;51.098;13.770;2023-04-03T16:20:19;27.00;45.50
65752;DHT22;52486;51.098;13.770;2023-04-03T16:22:45;26.20;52.30
65752;DHT22;52486;51.098;13.770;2023-04-03T16:25:11;25.90;45.10
65752;DHT22;52486;51.098;13.770;2023-04-03T16:27:37;25.80;45.20
65752;DHT22;52486;51.098;13.770;2023-04-03T16:30:05;27.00;45.90
65752;DHT22;52486;51.098;13.770;2023-04-03T16:32:32;25.50;44.10
65752;DHT22;52486;51.098;13.770;2023-04-03T16:34:58;25.60;45.30
65752;DHT22;52486;51.098;13.770;2023-04-03T16:37:24;25.60;45.00
65752;DHT22;52486;51.098;13.770;2023-04-03T16:39:51;24.40;51.70
65752;DHT22;52486;51.098;13.770;2023-04-03T16:42:16;25.70;45.10
65752;DHT22;52486;51.098;13.770;2023-04-03T16:44:42;27.10;46.30
65752;DHT22;52486;51.098;13.770;2023-04-03T16:47:08;25.70;45.30
65752;DHT22;52486;51.098;13.770;2023-04-03T16:49:34;26.20;45.60
65752;DHT22;52486;51.098;13.770;2023-04-03T16:52:02;25.80;45.20
65752;DHT22;52486;51.098;13.770;2023-04-03T16:54:28;27.20;46.70
65752;DHT22;52486;51.098;13.770;2023-04-03T16:56:54;25.10;52.50
65752;DHT22;52486;51.098;13.770;2023-04-03T16:59:19;25.60;45.30
65752;DHT22;52486;51.098;13.770;2023-04-03T17:01:45;25.60;45.40
65752;DHT22;52486;51.098;13.770;2023-04-03T17:04:11;25.40;45.30
65752;DHT22;52486;51.098;13.770;2023-04-03T17:06:38;24.30;51.80
65752;DHT22;52486;51.098;13.770;2023-04-03T17:09:05;25.50;45.30
65752;DHT22;52486;51.098;13.770;2023-04-03T17:11:31;24.70;51.70
65752;DHT22;52486;51.098;13.770;2023-04-03T17:13:57;25.70;45.50
65752;DHT22;52486;51.098;13.770;2023-04-03T17:16:23;25.50;45.50
65752;DHT22;52486;51.098;13.770;2023-04-03T17:18:49;26.00;45.80
65752;DHT22;52486;51.098;13.770;2023-04-03T17:21:15;25.30;45.30
65752;DHT22;52486;51.098;13.770;2023-04-03T17:23:43;25.40;45.50
65752;DHT22;52486;51.098;13.770;2023-04-03T17:26:09;25.50;45.70
65752;DHT22;52486;51.098;13.770;2023-04-03T17:28:35;25.40;45.80
65752;DHT22;52486;51.098;13.770;2023-04-03T17:31:02;24.10;52.50